sensor_id;sensor_type;location;lat;lon;timestamp;pressure;altitude;pressure_sealevel;temperature;humidity
40013;BME280;37387;42.672;23.334;2023-04-27T00:04:32;941.1;;;7.9;67.0
40013;BME280;37387;42.672;23.334;2023-04-27T00:10:32;941.1;;;7.8;66.5
40013;BME280;37387;42.672;23.334;2023-04-27T00:17:32;941.2;;;7.7;67.2
40013;BME280;37387;42.672;23.334;2023-04-27T00:20:32;941.2;;;7.8;67.7
40013;BME280;37387;42.672;23.334;2023-04-27T00:22:32;941.3;;;7.7;67.4
40013;BME280;37387;42.672;23.334;2023-04-27T00:25:32;941.2;;;7.6;67.5
40013;BME280;37387;42.672;23.334;2023-04-27T00:29:32;941.2;;;7.5;67.9
40013;BME280;37387;42.672;23.334;2023-04-27T00:31:32;941.2;;;7.4;68.4
40013;BME280;37387;42.672;23.334;2023-04-27T00:36:32;941.2;;;7.3;69.4
40013;BME280;37387;42.672;23.334;2023-04-27T00:37:32;941.2;;;7.2;69.0
40013;BME280;37387;42.672;23.334;2023-04-27T00:40:32;941.2;;;7.1;69.3
40013;BME280;37387;42.672;23.334;2023-04-27T00:43:39;941.2;;;7.0;69.6
40013;BME280;37387;42.672;23.334;2023-04-27T00:46:32;941.3;;;6.9;70.2
40013;BME280;37387;42.672;23.334;2023-04-27T00:52:32;941.3;;;6.8;71.2
40013;BME280;37387;42.672;23.334;2023-04-27T01:00:34;941.3;;;6.7;72.5
40013;BME280;37387;42.672;23.334;2023-04-27T01:04:32;941.3;;;6.6;72.2
40013;BME280;37387;42.672;23.334;2023-04-27T01:09:32;941.3;;;6.5;72.7
40013;BME280;37387;42.672;23.334;2023-04-27T01:17:32;941.4;;;6.4;73.7
40013;BME280;37387;42.672;23.334;2023-04-27T01:25:32;941.4;;;6.3;74.5
40013;BME280;37387;42.672;23.334;2023-04-27T01:32:32;941.5;;;6.2;74.0
40013;BME280;37387;42.672;23.334;2023-04-27T01:34:32;941.5;;;6.3;73.9
40013;BME280;37387;42.672;23.334;2023-04-27T01:35:32;941.5;;;6.2;74.0
40013;BME280;37387;42.672;23.334;2023-04-27T01:36:32;941.5;;;6.3;74.6
40013;BME280;37387;42.672;23.334;2023-04-27T01:37:32;941.6;;;6.2;74.8
40013;BME280;37387;42.672;23.334;2023-04-27T01:50:32;941.6;;;6.1;75.2
40013;BME280;37387;42.672;23.334;2023-04-27T01:53:32;941.6;;;6.2;74.8
40013;BME280;37387;42.672;23.334;2023-04-27T01:55:32;941.6;;;6.1;75.6
40013;BME280;37387;42.672;23.334;2023-04-27T02:05:32;941.6;;;6.0;75.0
40013;BME280;37387;42.672;23.334;2023-04-27T02:21:32;941.6;;;5.9;75.3
40013;BME280;37387;42.672;23.334;2023-04-27T02:42:32;941.7;;;6.0;74.5
40013;BME280;37387;42.672;23.334;2023-04-27T03:01:32;941.8;;;6.1;72.3
40013;BME280;37387;42.672;23.334;2023-04-27T03:04:32;941.8;;;6.0;73.0
40013;BME280;37387;42.672;23.334;2023-04-27T03:05:32;941.8;;;6.1;73.2
40013;BME280;37387;42.672;23.334;2023-04-27T03:07:32;941.8;;;6.0;72.7
40013;BME280;37387;42.672;23.334;2023-04-27T03:27:32;941.9;;;5.9;71.6
40013;BME280;37387;42.672;23.334;2023-04-27T03:30:32;942.0;;;6.0;72.4
40013;BME280;37387;42.672;23.334;2023-04-27T03:33:32;942.1;;;5.9;72.6
40013;BME280;37387;42.672;23.334;2023-04-27T03:34:32;942.1;;;6.0;72.8
40013;BME280;37387;42.672;23.334;2023-04-27T03:36:32;942.0;;;5.9;72.9
40013;BME280;37387;42.672;23.334;2023-04-27T03:50:32;942.1;;;6.0;73.1
40013;BME280;37387;42.672;23.334;2023-04-27T03:54:32;942.1;;;6.1;72.5
40013;BME280;37387;42.672;23.334;2023-04-27T03:57:32;942.2;;;6.2;70.5
40013;BME280;37387;42.672;23.334;2023-04-27T04:02:32;942.3;;;6.3;69.8
40013;BME280;37387;42.672;23.334;2023-04-27T04:12:32;942.4;;;6.4;69.5
40013;BME280;37387;42.672;23.334;2023-04-27T04:15:32;942.4;;;6.3;68.3
40013;BME280;37387;42.672;23.334;2023-04-27T04:16:32;942.4;;;6.4;68.9
40013;BME280;37387;42.672;23.334;2023-04-27T04:19:32;942.4;;;6.3;68.5
40013;BME280;37387;42.672;23.334;2023-04-27T04:20:33;942.5;;;6.4;68.5
40013;BME280;37387;42.672;23.334;2023-04-27T04:22:32;942.5;;;6.3;68.4
40013;BME280;37387;42.672;23.334;2023-04-27T04:26:32;942.5;;;6.4;68.2
40013;BME280;37387;42.672;23.334;2023-04-27T04:27:32;942.5;;;6.5;68.3
40013;BME280;37387;42.672;23.334;2023-04-27T04:30:32;942.6;;;6.6;67.8
40013;BME280;37387;42.672;23.334;2023-04-27T04:31:32;942.6;;;6.7;67.8
40013;BME280;37387;42.672;23.334;2023-04-27T04:32:32;942.6;;;6.8;67.6
40013;BME280;37387;42.672;23.334;2023-04-27T04:33:32;942.6;;;6.9;67.0
40013;BME280;37387;42.672;23.334;2023-04-27T04:34:32;942.7;;;7.0;66.7
40013;BME280;37387;42.672;23.334;2023-04-27T04:35:32;942.7;;;6.9;66.3
40013;BME280;37387;42.672;23.334;2023-04-27T04:38:32;942.7;;;7.1;65.4
40013;BME280;37387;42.672;23.334;2023-04-27T04:39:32;942.7;;;7.0;65.2
40013;BME280;37387;42.672;23.334;2023-04-27T04:40:32;942.7;;;7.3;65.2
40013;BME280;37387;42.672;23.334;2023-04-27T04:41:32;942.7;;;7.6;64.3
40013;BME280;37387;42.672;23.334;2023-04-27T04:42:32;942.7;;;8.2;63.2
40013;BME280;37387;42.672;23.334;2023-04-27T04:43:32;942.7;;;8.5;61.0
40013;BME280;37387;42.672;23.334;2023-04-27T04:44:32;942.7;;;8.4;59.0
40013;BME280;37387;42.672;23.334;2023-04-27T04:45:32;942.7;;;8.2;59.5
40013;BME280;37387;42.672;23.334;2023-04-27T04:46:32;942.7;;;8.5;58.6
40013;BME280;37387;42.672;23.334;2023-04-27T04:47:32;942.7;;;8.9;58.6
40013;BME280;37387;42.672;23.334;2023-04-27T04:48:32;942.8;;;9.2;57.5
40013;BME280;37387;42.672;23.334;2023-04-27T04:49:32;942.8;;;9.7;56.4
40013;BME280;37387;42.672;23.334;2023-04-27T04:50:32;942.8;;;10.0;54.8
40013;BME280;37387;42.672;23.334;2023-04-27T04:51:32;942.8;;;10.2;53.5
40013;BME280;37387;42.672;23.334;2023-04-27T04:52:32;942.9;;;10.4;52.6
40013;BME280;37387;42.672;23.334;2023-04-27T04:53:32;942.9;;;10.3;52.1
40013;BME280;37387;42.672;23.334;2023-04-27T04:54:32;942.8;;;10.0;52.3
40013;BME280;37387;42.672;23.334;2023-04-27T04:55:32;942.8;;;9.7;53.8
40013;BME280;37387;42.672;23.334;2023-04-27T04:56:32;942.8;;;10.0;53.8
40013;BME280;37387;42.672;23.334;2023-04-27T04:57:32;942.9;;;10.4;55.5
40013;BME280;37387;42.672;23.334;2023-04-27T04:58:32;943.0;;;10.8;52.4
40013;BME280;37387;42.672;23.334;2023-04-27T04:59:32;943.0;;;11.0;51.6
40013;BME280;37387;42.672;23.334;2023-04-27T05:00:32;943.0;;;11.6;50.0
40013;BME280;37387;42.672;23.334;2023-04-27T05:01:32;943.0;;;12.5;50.0
40013;BME280;37387;42.672;23.334;2023-04-27T05:02:32;943.0;;;12.9;47.7
40013;BME280;37387;42.672;23.334;2023-04-27T05:03:32;943.0;;;13.5;45.8
40013;BME280;37387;42.672;23.334;2023-04-27T05:04:32;943.0;;;13.1;44.9
40013;BME280;37387;42.672;23.334;2023-04-27T05:05:32;943.1;;;13.0;44.8
40013;BME280;37387;42.672;23.334;2023-04-27T05:06:32;943.0;;;12.9;44.7
40013;BME280;37387;42.672;23.334;2023-04-27T05:07:32;943.1;;;12.7;44.9
40013;BME280;37387;42.672;23.334;2023-04-27T05:08:32;943.0;;;13.2;44.9
40013;BME280;37387;42.672;23.334;2023-04-27T05:09:32;943.1;;;13.1;44.7
40013;BME280;37387;42.672;23.334;2023-04-27T05:10:32;943.1;;;12.6;44.5
40013;BME280;37387;42.672;23.334;2023-04-27T05:11:32;943.1;;;12.4;45.5
40013;BME280;37387;42.672;23.334;2023-04-27T05:12:32;943.1;;;11.4;47.5
40013;BME280;37387;42.672;23.334;2023-04-27T05:13:32;943.1;;;11.5;47.5
40013;BME280;37387;42.672;23.334;2023-04-27T05:14:33;943.1;;;11.1;47.5
40013;BME280;37387;42.672;23.334;2023-04-27T05:15:32;943.1;;;10.2;48.5
40013;BME280;37387;42.672;23.334;2023-04-27T05:16:32;943.1;;;10.0;50.2
40013;BME280;37387;42.672;23.334;2023-04-27T05:18:32;943.1;;;9.7;51.5
40013;BME280;37387;42.672;23.334;2023-04-27T05:19:32;943.1;;;9.6;52.3
40013;BME280;37387;42.672;23.334;2023-04-27T05:20:33;943.1;;;9.3;52.9
40013;BME280;37387;42.672;23.334;2023-04-27T05:21:32;943.1;;;9.1;53.9
40013;BME280;37387;42.672;23.334;2023-04-27T05:22:32;943.1;;;8.9;54.5
40013;BME280;37387;42.672;23.334;2023-04-27T05:23:32;943.1;;;8.7;55.5
40013;BME280;37387;42.672;23.334;2023-04-27T05:24:32;943.1;;;8.5;56.1
40013;BME280;37387;42.672;23.334;2023-04-27T05:25:32;943.1;;;8.6;56.8
40013;BME280;37387;42.672;23.334;2023-04-27T05:26:32;943.1;;;8.4;57.0
40013;BME280;37387;42.672;23.334;2023-04-27T05:27:32;943.1;;;8.3;57.3
40013;BME280;37387;42.672;23.334;2023-04-27T05:28:32;943.1;;;8.1;57.6
40013;BME280;37387;42.672;23.334;2023-04-27T05:29:32;943.2;;;8.2;59.1
40013;BME280;37387;42.672;23.334;2023-04-27T05:30:32;943.2;;;8.1;59.2
40013;BME280;37387;42.672;23.334;2023-04-27T05:31:32;943.2;;;8.0;59.2
40013;BME280;37387;42.672;23.334;2023-04-27T05:33:32;943.2;;;7.9;59.4
40013;BME280;37387;42.672;23.334;2023-04-27T05:34:32;943.2;;;8.0;59.4
40013;BME280;37387;42.672;23.334;2023-04-27T05:35:32;943.2;;;7.9;60.7
40013;BME280;37387;42.672;23.334;2023-04-27T05:36:32;943.2;;;8.0;60.7
40013;BME280;37387;42.672;23.334;2023-04-27T05:38:32;943.2;;;8.1;60.3
40013;BME280;37387;42.672;23.334;2023-04-27T05:40:32;943.2;;;8.0;60.1
40013;BME280;37387;42.672;23.334;2023-04-27T05:41:33;943.2;;;7.8;60.1
40013;BME280;37387;42.672;23.334;2023-04-27T05:43:32;943.2;;;7.9;61.0
40013;BME280;37387;42.672;23.334;2023-04-27T05:44:32;943.3;;;8.1;60.7
40013;BME280;37387;42.672;23.334;2023-04-27T05:45:32;943.3;;;8.0;60.8
40013;BME280;37387;42.672;23.334;2023-04-27T05:46:32;943.2;;;7.9;60.6
40013;BME280;37387;42.672;23.334;2023-04-27T05:47:32;943.2;;;8.0;60.6
40013;BME280;37387;42.672;23.334;2023-04-27T05:48:32;943.3;;;8.2;61.4
40013;BME280;37387;42.672;23.334;2023-04-27T05:49:32;943.2;;;8.0;60.8
40013;BME280;37387;42.672;23.334;2023-04-27T05:50:32;943.2;;;7.8;60.7
40013;BME280;37387;42.672;23.334;2023-04-27T05:51:32;943.3;;;8.0;62.1
40013;BME280;37387;42.672;23.334;2023-04-27T05:52:32;943.2;;;8.1;61.8
40013;BME280;37387;42.672;23.334;2023-04-27T05:53:32;943.2;;;8.0;62.7
40013;BME280;37387;42.672;23.334;2023-04-27T05:56:32;943.3;;;7.9;61.9
40013;BME280;37387;42.672;23.334;2023-04-27T05:57:32;943.3;;;8.0;61.9
40013;BME280;37387;42.672;23.334;2023-04-27T05:59:32;943.3;;;8.1;62.2
40013;BME280;37387;42.672;23.334;2023-04-27T06:00:32;943.3;;;8.4;62.2
40013;BME280;37387;42.672;23.334;2023-04-27T06:02:32;943.3;;;8.5;61.7
40013;BME280;37387;42.672;23.334;2023-04-27T06:07:32;943.3;;;8.3;60.4
40013;BME280;37387;42.672;23.334;2023-04-27T06:09:32;943.2;;;8.4;60.3
40013;BME280;37387;42.672;23.334;2023-04-27T06:10:32;943.3;;;8.6;60.2
40013;BME280;37387;42.672;23.334;2023-04-27T06:11:32;943.3;;;8.8;59.4
40013;BME280;37387;42.672;23.334;2023-04-27T06:14:33;943.3;;;8.9;59.7
40013;BME280;37387;42.672;23.334;2023-04-27T06:15:32;943.3;;;9.0;59.1
40013;BME280;37387;42.672;23.334;2023-04-27T06:17:32;943.3;;;9.1;59.0
40013;BME280;37387;42.672;23.334;2023-04-27T06:18:32;943.3;;;9.4;58.7
40013;BME280;37387;42.672;23.334;2023-04-27T06:19:32;943.3;;;9.3;57.5
40013;BME280;37387;42.672;23.334;2023-04-27T06:20:32;943.3;;;9.5;57.5
40013;BME280;37387;42.672;23.334;2023-04-27T06:21:32;943.3;;;9.8;57.9
40013;BME280;37387;42.672;23.334;2023-04-27T06:22:32;943.3;;;9.9;56.9
40013;BME280;37387;42.672;23.334;2023-04-27T06:23:32;943.3;;;9.8;56.3
40013;BME280;37387;42.672;23.334;2023-04-27T06:24:32;943.3;;;10.0;57.0
40013;BME280;37387;42.672;23.334;2023-04-27T06:25:32;943.2;;;9.6;56.1
40013;BME280;37387;42.672;23.334;2023-04-27T06:26:32;943.2;;;9.7;56.2
40013;BME280;37387;42.672;23.334;2023-04-27T06:27:32;943.2;;;9.8;56.1
40013;BME280;37387;42.672;23.334;2023-04-27T06:28:32;943.2;;;10.0;56.3
40013;BME280;37387;42.672;23.334;2023-04-27T06:29:32;943.2;;;10.1;55.4
40013;BME280;37387;42.672;23.334;2023-04-27T06:31:32;943.2;;;10.2;54.6
40013;BME280;37387;42.672;23.334;2023-04-27T06:32:32;943.2;;;10.4;54.6
40013;BME280;37387;42.672;23.334;2023-04-27T06:34:32;943.3;;;10.6;54.8
40013;BME280;37387;42.672;23.334;2023-04-27T06:35:32;943.3;;;10.9;54.1
40013;BME280;37387;42.672;23.334;2023-04-27T06:36:32;943.2;;;11.0;53.4
40013;BME280;37387;42.672;23.334;2023-04-27T06:37:32;943.2;;;10.9;53.4
40013;BME280;37387;42.672;23.334;2023-04-27T06:38:32;943.3;;;10.8;52.5
40013;BME280;37387;42.672;23.334;2023-04-27T06:39:33;943.2;;;10.4;52.5
40013;BME280;37387;42.672;23.334;2023-04-27T06:40:32;943.2;;;10.2;53.0
40013;BME280;37387;42.672;23.334;2023-04-27T06:41:32;943.2;;;10.4;53.4
40013;BME280;37387;42.672;23.334;2023-04-27T06:42:32;943.3;;;10.7;54.0
40013;BME280;37387;42.672;23.334;2023-04-27T06:43:32;943.3;;;10.8;53.7
40013;BME280;37387;42.672;23.334;2023-04-27T06:44:32;943.2;;;10.9;53.0
40013;BME280;37387;42.672;23.334;2023-04-27T06:45:32;943.3;;;11.3;51.7
40013;BME280;37387;42.672;23.334;2023-04-27T06:47:32;943.2;;;11.1;51.6
40013;BME280;37387;42.672;23.334;2023-04-27T06:50:32;943.2;;;10.9;51.8
40013;BME280;37387;42.672;23.334;2023-04-27T06:51:32;943.2;;;11.1;51.8
40013;BME280;37387;42.672;23.334;2023-04-27T06:52:32;943.2;;;11.9;51.3
40013;BME280;37387;42.672;23.334;2023-04-27T06:53:32;943.2;;;12.8;48.0
40013;BME280;37387;42.672;23.334;2023-04-27T06:54:32;943.2;;;14.1;48.0
40013;BME280;37387;42.672;23.334;2023-04-27T06:55:32;943.2;;;15.2;45.9
40013;BME280;37387;42.672;23.334;2023-04-27T06:56:32;943.2;;;15.3;43.4
40013;BME280;37387;42.672;23.334;2023-04-27T06:57:32;943.3;;;15.2;42.7
40013;BME280;37387;42.672;23.334;2023-04-27T06:58:32;943.2;;;14.1;41.5
40013;BME280;37387;42.672;23.334;2023-04-27T06:59:32;943.2;;;14.5;43.0
40013;BME280;37387;42.672;23.334;2023-04-27T07:00:32;943.2;;;14.9;42.6
40013;BME280;37387;42.672;23.334;2023-04-27T07:01:32;943.2;;;15.1;42.2
40013;BME280;37387;42.672;23.334;2023-04-27T07:02:32;943.2;;;15.4;42.1
40013;BME280;37387;42.672;23.334;2023-04-27T07:03:33;943.2;;;15.6;41.6
40013;BME280;37387;42.672;23.334;2023-04-27T07:04:32;943.2;;;15.5;40.7
40013;BME280;37387;42.672;23.334;2023-04-27T07:05:33;943.2;;;15.2;40.7
40013;BME280;37387;42.672;23.334;2023-04-27T07:06:32;943.1;;;15.4;41.0
40013;BME280;37387;42.672;23.334;2023-04-27T07:07:32;943.2;;;16.2;39.8
40013;BME280;37387;42.672;23.334;2023-04-27T07:08:32;943.2;;;16.1;39.8
40013;BME280;37387;42.672;23.334;2023-04-27T07:09:32;943.2;;;15.2;39.1
40013;BME280;37387;42.672;23.334;2023-04-27T07:10:32;943.1;;;15.8;40.1
40013;BME280;37387;42.672;23.334;2023-04-27T07:11:32;943.1;;;15.4;39.9
40013;BME280;37387;42.672;23.334;2023-04-27T07:12:32;943.1;;;14.5;41.8
40013;BME280;37387;42.672;23.334;2023-04-27T07:13:32;943.1;;;14.3;41.8
40013;BME280;37387;42.672;23.334;2023-04-27T07:14:32;943.1;;;14.0;42.1
40013;BME280;37387;42.672;23.334;2023-04-27T07:15:32;943.1;;;13.5;43.9
40013;BME280;37387;42.672;23.334;2023-04-27T07:16:32;943.1;;;14.3;43.9
40013;BME280;37387;42.672;23.334;2023-04-27T07:17:32;943.1;;;14.5;42.5
40013;BME280;37387;42.672;23.334;2023-04-27T07:18:32;943.1;;;15.0;42.5
40013;BME280;37387;42.672;23.334;2023-04-27T07:19:32;943.2;;;14.8;42.3
40013;BME280;37387;42.672;23.334;2023-04-27T07:20:32;943.2;;;15.3;41.4
40013;BME280;37387;42.672;23.334;2023-04-27T07:21:32;943.2;;;14.8;41.3
40013;BME280;37387;42.672;23.334;2023-04-27T07:22:32;943.2;;;14.6;41.8
40013;BME280;37387;42.672;23.334;2023-04-27T07:23:32;943.2;;;13.8;41.8
40013;BME280;37387;42.672;23.334;2023-04-27T07:25:32;943.1;;;13.2;43.2
40013;BME280;37387;42.672;23.334;2023-04-27T07:26:32;943.1;;;12.7;44.0
40013;BME280;37387;42.672;23.334;2023-04-27T07:27:32;943.0;;;12.9;45.0
40013;BME280;37387;42.672;23.334;2023-04-27T07:28:32;943.1;;;12.8;44.9
40013;BME280;37387;42.672;23.334;2023-04-27T07:29:32;943.1;;;12.7;45.1
40013;BME280;37387;42.672;23.334;2023-04-27T07:30:32;943.1;;;12.9;45.1
40013;BME280;37387;42.672;23.334;2023-04-27T07:31:32;943.1;;;13.1;45.3
40013;BME280;37387;42.672;23.334;2023-04-27T07:32:32;943.1;;;13.0;44.7
40013;BME280;37387;42.672;23.334;2023-04-27T07:34:32;943.0;;;12.8;44.3
40013;BME280;37387;42.672;23.334;2023-04-27T07:35:32;943.1;;;13.3;45.0
40013;BME280;37387;42.672;23.334;2023-04-27T07:36:32;943.1;;;13.0;43.0
40013;BME280;37387;42.672;23.334;2023-04-27T07:38:32;943.1;;;12.7;44.9
40013;BME280;37387;42.672;23.334;2023-04-27T07:41:32;943.1;;;13.0;44.4
40013;BME280;37387;42.672;23.334;2023-04-27T07:42:32;943.1;;;13.1;43.6
40013;BME280;37387;42.672;23.334;2023-04-27T07:43:32;943.0;;;13.0;43.3
40013;BME280;37387;42.672;23.334;2023-04-27T07:44:32;943.0;;;12.8;43.1
40013;BME280;37387;42.672;23.334;2023-04-27T07:45:32;943.0;;;13.1;43.4
40013;BME280;37387;42.672;23.334;2023-04-27T07:46:32;943.1;;;12.8;43.7
40013;BME280;37387;42.672;23.334;2023-04-27T07:47:32;943.1;;;12.3;43.7
40013;BME280;37387;42.672;23.334;2023-04-27T07:48:32;943.0;;;12.7;44.4
40013;BME280;37387;42.672;23.334;2023-04-27T07:49:32;943.1;;;12.9;44.1
40013;BME280;37387;42.672;23.334;2023-04-27T07:51:32;943.0;;;12.7;44.2
40013;BME280;37387;42.672;23.334;2023-04-27T07:52:32;943.0;;;12.6;43.9
40013;BME280;37387;42.672;23.334;2023-04-27T07:53:33;943.0;;;12.4;43.6
40013;BME280;37387;42.672;23.334;2023-04-27T07:54:32;943.0;;;12.8;43.6
40013;BME280;37387;42.672;23.334;2023-04-27T07:55:34;943.0;;;12.9;43.6
40013;BME280;37387;42.672;23.334;2023-04-27T07:56:32;943.0;;;12.8;43.3
40013;BME280;37387;42.672;23.334;2023-04-27T07:57:32;943.0;;;12.9;43.5
40013;BME280;37387;42.672;23.334;2023-04-27T07:58:32;943.0;;;13.4;43.9
40013;BME280;37387;42.672;23.334;2023-04-27T07:59:32;943.1;;;13.5;43.3
40013;BME280;37387;42.672;23.334;2023-04-27T08:01:32;943.1;;;13.7;41.9
40013;BME280;37387;42.672;23.334;2023-04-27T08:02:32;943.1;;;14.0;41.9
40013;BME280;37387;42.672;23.334;2023-04-27T08:03:32;943.0;;;13.9;40.7
40013;BME280;37387;42.672;23.334;2023-04-27T08:04:32;943.0;;;14.3;40.7
40013;BME280;37387;42.672;23.334;2023-04-27T08:05:32;943.0;;;15.2;40.3
40013;BME280;37387;42.672;23.334;2023-04-27T08:06:32;943.1;;;15.4;39.0
40013;BME280;37387;42.672;23.334;2023-04-27T08:07:32;943.1;;;15.3;37.8
40013;BME280;37387;42.672;23.334;2023-04-27T08:08:32;943.0;;;15.6;38.2
40013;BME280;37387;42.672;23.334;2023-04-27T08:09:32;943.1;;;16.2;37.9
40013;BME280;37387;42.672;23.334;2023-04-27T08:10:32;943.1;;;16.6;36.6
40013;BME280;37387;42.672;23.334;2023-04-27T08:12:32;943.1;;;16.4;36.5
40013;BME280;37387;42.672;23.334;2023-04-27T08:13:33;943.1;;;17.3;36.5
40013;BME280;37387;42.672;23.334;2023-04-27T08:14:33;943.1;;;17.1;36.5
40013;BME280;37387;42.672;23.334;2023-04-27T08:15:32;943.1;;;16.8;35.9
40013;BME280;37387;42.672;23.334;2023-04-27T08:16:32;943.1;;;16.6;35.8
40013;BME280;37387;42.672;23.334;2023-04-27T08:17:32;943.1;;;16.9;35.8
40013;BME280;37387;42.672;23.334;2023-04-27T08:18:32;943.1;;;17.6;36.0
40013;BME280;37387;42.672;23.334;2023-04-27T08:19:32;943.1;;;17.5;35.3
40013;BME280;37387;42.672;23.334;2023-04-27T08:20:32;943.1;;;18.1;34.3
40013;BME280;37387;42.672;23.334;2023-04-27T08:21:32;943.1;;;18.4;34.3
40013;BME280;37387;42.672;23.334;2023-04-27T08:22:32;943.1;;;18.9;33.8
40013;BME280;37387;42.672;23.334;2023-04-27T08:23:32;943.1;;;18.6;33.1
40013;BME280;37387;42.672;23.334;2023-04-27T08:24:32;943.1;;;18.7;33.0
40013;BME280;37387;42.672;23.334;2023-04-27T08:25:34;943.1;;;19.0;33.5
40013;BME280;37387;42.672;23.334;2023-04-27T08:27:32;943.1;;;18.5;33.1
40013;BME280;37387;42.672;23.334;2023-04-27T08:28:32;943.1;;;18.2;33.1
40013;BME280;37387;42.672;23.334;2023-04-27T08:29:32;943.1;;;17.2;33.3
40013;BME280;37387;42.672;23.334;2023-04-27T08:30:32;943.1;;;16.7;35.9
40013;BME280;37387;42.672;23.334;2023-04-27T08:31:32;943.1;;;17.4;35.9
40013;BME280;37387;42.672;23.334;2023-04-27T08:32:32;943.0;;;17.9;35.8
40013;BME280;37387;42.672;23.334;2023-04-27T08:33:32;943.1;;;18.1;35.0
40013;BME280;37387;42.672;23.334;2023-04-27T08:34:32;943.1;;;18.2;34.8
40013;BME280;37387;42.672;23.334;2023-04-27T08:35:32;943.1;;;18.3;34.6
40013;BME280;37387;42.672;23.334;2023-04-27T08:36:32;943.0;;;17.5;34.1
40013;BME280;37387;42.672;23.334;2023-04-27T08:37:32;943.0;;;17.2;34.1
40013;BME280;37387;42.672;23.334;2023-04-27T08:38:33;943.1;;;17.6;35.3
40013;BME280;37387;42.672;23.334;2023-04-27T08:39:32;943.1;;;18.0;35.0
40013;BME280;37387;42.672;23.334;2023-04-27T08:40:32;943.0;;;18.3;34.6
40013;BME280;37387;42.672;23.334;2023-04-27T08:41:32;943.0;;;17.9;33.9
40013;BME280;37387;42.672;23.334;2023-04-27T08:42:32;943.1;;;17.7;33.9
40013;BME280;37387;42.672;23.334;2023-04-27T08:43:32;943.0;;;17.3;34.2
40013;BME280;37387;42.672;23.334;2023-04-27T08:46:32;943.1;;;17.5;35.1
40013;BME280;37387;42.672;23.334;2023-04-27T08:47:32;943.1;;;16.4;35.2
40013;BME280;37387;42.672;23.334;2023-04-27T08:48:32;943.1;;;16.1;37.4
40013;BME280;37387;42.672;23.334;2023-04-27T08:49:32;943.1;;;16.4;37.4
40013;BME280;37387;42.672;23.334;2023-04-27T08:50:32;943.1;;;16.8;37.8
40013;BME280;37387;42.672;23.334;2023-04-27T08:51:32;943.1;;;16.2;36.3
40013;BME280;37387;42.672;23.334;2023-04-27T08:52:32;943.0;;;15.6;36.9
40013;BME280;37387;42.672;23.334;2023-04-27T08:53:32;943.1;;;15.8;38.0
40013;BME280;37387;42.672;23.334;2023-04-27T08:54:32;943.1;;;16.0;38.9
40013;BME280;37387;42.672;23.334;2023-04-27T08:55:32;943.1;;;15.7;38.1
40013;BME280;37387;42.672;23.334;2023-04-27T08:56:32;943.1;;;15.4;38.4
40013;BME280;37387;42.672;23.334;2023-04-27T08:57:32;943.1;;;15.2;40.0
40013;BME280;37387;42.672;23.334;2023-04-27T08:58:35;943.1;;;15.4;40.0
40013;BME280;37387;42.672;23.334;2023-04-27T08:59:32;943.1;;;15.3;39.5
40013;BME280;37387;42.672;23.334;2023-04-27T09:00:37;943.1;;;14.3;39.0
40013;BME280;37387;42.672;23.334;2023-04-27T09:01:32;943.0;;;14.0;40.1
40013;BME280;37387;42.672;23.334;2023-04-27T09:02:32;943.1;;;13.9;40.9
40013;BME280;37387;42.672;23.334;2023-04-27T09:03:32;943.1;;;13.8;41.4
40013;BME280;37387;42.672;23.334;2023-04-27T09:04:36;943.0;;;13.9;41.4
40013;BME280;37387;42.672;23.334;2023-04-27T09:07:32;943.0;;;14.2;41.2
40013;BME280;37387;42.672;23.334;2023-04-27T09:08:40;943.0;;;14.5;41.3
40013;BME280;37387;42.672;23.334;2023-04-27T09:09:32;943.0;;;14.6;40.7
40013;BME280;37387;42.672;23.334;2023-04-27T09:11:33;943.0;;;14.9;39.7
40013;BME280;37387;42.672;23.334;2023-04-27T09:12:32;943.0;;;14.8;39.7
40013;BME280;37387;42.672;23.334;2023-04-27T09:13:34;943.0;;;15.0;40.0
40013;BME280;37387;42.672;23.334;2023-04-27T09:14:32;943.0;;;16.0;40.0
40013;BME280;37387;42.672;23.334;2023-04-27T09:15:39;943.0;;;16.9;39.1
40013;BME280;37387;42.672;23.334;2023-04-27T09:16:32;943.0;;;16.7;36.7
40013;BME280;37387;42.672;23.334;2023-04-27T09:17:32;943.0;;;17.0;36.7
40013;BME280;37387;42.672;23.334;2023-04-27T09:18:34;943.0;;;17.1;36.1
40013;BME280;37387;42.672;23.334;2023-04-27T09:19:32;943.0;;;16.5;36.4
40013;BME280;37387;42.672;23.334;2023-04-27T09:20:32;943.0;;;16.3;36.5
40013;BME280;37387;42.672;23.334;2023-04-27T09:21:32;943.0;;;16.6;37.0
40013;BME280;37387;42.672;23.334;2023-04-27T09:23:33;943.0;;;17.5;36.3
40013;BME280;37387;42.672;23.334;2023-04-27T09:24:32;942.9;;;18.0;35.6
40013;BME280;37387;42.672;23.334;2023-04-27T09:27:32;942.9;;;17.3;34.8
40013;BME280;37387;42.672;23.334;2023-04-27T09:28:33;942.9;;;17.1;35.3
40013;BME280;37387;42.672;23.334;2023-04-27T09:29:33;942.9;;;16.9;35.8
40013;BME280;37387;42.672;23.334;2023-04-27T09:30:32;942.9;;;16.3;36.4
40013;BME280;37387;42.672;23.334;2023-04-27T09:31:32;942.9;;;15.9;36.7
40013;BME280;37387;42.672;23.334;2023-04-27T09:32:32;942.9;;;15.4;37.8
40013;BME280;37387;42.672;23.334;2023-04-27T09:33:33;942.9;;;15.6;38.6
40013;BME280;37387;42.672;23.334;2023-04-27T09:34:39;942.9;;;15.5;38.9
40013;BME280;37387;42.672;23.334;2023-04-27T09:35:32;942.9;;;15.3;38.4
40013;BME280;37387;42.672;23.334;2023-04-27T09:36:32;942.9;;;14.9;38.7
40013;BME280;37387;42.672;23.334;2023-04-27T09:37:32;942.8;;;14.5;39.6
40013;BME280;37387;42.672;23.334;2023-04-27T09:38:32;942.8;;;14.3;40.3
40013;BME280;37387;42.672;23.334;2023-04-27T09:39:32;942.8;;;14.4;40.3
40013;BME280;37387;42.672;23.334;2023-04-27T09:40:32;942.8;;;14.6;40.6
40013;BME280;37387;42.672;23.334;2023-04-27T09:41:32;942.8;;;14.2;40.4
40013;BME280;37387;42.672;23.334;2023-04-27T09:42:32;942.8;;;14.4;40.7
40013;BME280;37387;42.672;23.334;2023-04-27T09:43:32;942.8;;;15.2;40.1
40013;BME280;37387;42.672;23.334;2023-04-27T09:44:32;942.8;;;15.7;39.2
40013;BME280;37387;42.672;23.334;2023-04-27T09:45:32;942.7;;;16.3;37.4
40013;BME280;37387;42.672;23.334;2023-04-27T09:46:32;942.7;;;16.4;37.4
40013;BME280;37387;42.672;23.334;2023-04-27T09:47:32;942.7;;;16.0;36.9
40013;BME280;37387;42.672;23.334;2023-04-27T09:48:32;942.7;;;16.3;36.4
40013;BME280;37387;42.672;23.334;2023-04-27T09:49:32;942.7;;;16.2;36.4
40013;BME280;37387;42.672;23.334;2023-04-27T09:50:33;942.7;;;15.9;36.3
40013;BME280;37387;42.672;23.334;2023-04-27T09:51:32;942.7;;;15.6;36.4
40013;BME280;37387;42.672;23.334;2023-04-27T09:52:32;942.7;;;15.5;37.2
40013;BME280;37387;42.672;23.334;2023-04-27T09:53:33;942.7;;;15.6;37.6
40013;BME280;37387;42.672;23.334;2023-04-27T09:54:32;942.7;;;16.3;38.5
40013;BME280;37387;42.672;23.334;2023-04-27T09:55:33;942.6;;;16.9;36.4
40013;BME280;37387;42.672;23.334;2023-04-27T09:57:35;942.7;;;17.5;35.3
40013;BME280;37387;42.672;23.334;2023-04-27T09:58:37;942.7;;;18.5;35.3